createdAt,value
2018-06-14T10:24:29.926Z,22.90
2018-06-14T10:31:22.661Z,22.74
2018-06-14T10:32:23.427Z,22.71
2018-06-14T10:33:24.198Z,22.70
2018-06-14T10:34:24.972Z,22.70
2018-06-14T10:35:25.743Z,22.68
2018-06-14T10:36:26.537Z,22.66
2018-06-14T10:37:27.306Z,22.62
2018-06-14T10:38:28.077Z,22.58
2018-06-14T10:39:28.848Z,22.55
2018-06-14T10:40:29.617Z,22.52
2018-06-14T10:41:30.420Z,22.49
2018-06-14T10:42:31.189Z,22.45
2018-06-14T10:43:32.001Z,22.43
2018-06-14T10:44:31.733Z,22.41
2018-06-14T10:45:33.501Z,22.40
2018-06-14T10:46:34.306Z,22.39
2018-06-14T10:47:35.070Z,22.39
2018-06-14T10:48:35.839Z,22.39
2018-06-14T10:49:36.614Z,22.39
2018-06-14T10:50:37.386Z,22.40
2018-06-14T10:51:38.179Z,22.41
2018-06-14T10:52:38.949Z,22.42
2018-06-14T10:53:39.726Z,22.44
2018-06-14T10:54:40.494Z,22.45
2018-06-14T10:55:41.272Z,22.46
2018-06-14T10:56:42.061Z,22.48
2018-06-14T10:57:42.832Z,22.49
2018-06-14T10:58:43.606Z,22.51
2018-06-14T10:59:44.378Z,22.52
2018-06-14T11:00:45.151Z,22.54
2018-06-14T11:01:45.950Z,22.55
2018-06-14T11:02:46.720Z,22.57
2018-06-14T11:03:47.496Z,22.58
2018-06-14T11:04:47.266Z,22.60
2018-06-14T11:05:49.037Z,22.61
2018-06-14T11:06:49.836Z,22.62
2018-06-14T11:07:50.608Z,22.63
2018-06-14T11:08:51.558Z,22.64
2018-06-14T11:09:51.256Z,22.66
2018-06-14T11:10:53.032Z,22.67
2018-06-14T11:11:53.822Z,22.68
2018-06-14T11:12:54.595Z,22.69
2018-06-14T11:13:55.499Z,22.71
2018-06-14T11:14:55.212Z,22.72
2018-06-14T11:15:56.981Z,22.73
2018-06-14T11:16:57.777Z,22.73
2018-06-14T11:17:58.548Z,22.74
2018-06-14T11:18:59.328Z,22.75
2018-06-14T11:20:00.089Z,22.75
2018-06-14T11:21:00.859Z,22.76
2018-06-14T11:22:01.657Z,22.77
2018-06-14T11:23:02.437Z,22.78
2018-06-14T11:24:03.204Z,22.79
2018-06-14T11:25:03.980Z,22.81
2018-06-14T11:26:04.745Z,22.81
2018-06-14T11:27:05.544Z,22.83
2018-06-14T11:28:06.314Z,22.84
2018-06-14T11:29:07.107Z,22.85
2018-06-14T11:30:07.877Z,22.86
2018-06-14T11:31:08.648Z,22.86
2018-06-14T11:32:09.454Z,22.87
2018-06-14T11:33:10.221Z,22.88
2018-06-14T11:34:10.992Z,22.89
2018-06-14T11:35:11.766Z,22.89
2018-06-14T11:36:12.542Z,22.90
2018-06-14T11:37:12.348Z,22.90
2018-06-14T12:29:25.528Z,24.10
2018-06-14T12:30:26.320Z,24.07
2018-06-14T12:31:27.090Z,24.03
2018-06-14T12:32:27.861Z,23.99
2018-06-14T12:33:27.633Z,23.94
2018-06-14T12:34:29.407Z,23.89
2018-06-14T12:47:23.200Z,24.11
2018-06-14T12:48:23.991Z,24.07
2018-06-14T12:49:24.760Z,24.05
2018-06-14T12:50:25.531Z,24.02
2018-06-14T13:08:45.202Z,24.06
2018-06-14T13:09:45.997Z,24.03
2018-06-14T13:10:46.769Z,24.03
2018-06-14T13:11:47.537Z,24.04
2018-06-14T13:12:48.316Z,24.05
2018-06-14T13:13:49.081Z,24.05
2018-06-14T13:14:49.876Z,24.05
2018-06-14T13:15:50.716Z,24.05
2018-06-14T13:16:50.422Z,24.05
2018-06-14T13:17:52.199Z,24.06
2018-06-14T13:18:52.969Z,24.06
2018-06-14T13:19:53.767Z,24.07
2018-06-14T13:20:54.540Z,24.08
2018-06-14T13:21:55.310Z,24.10
2018-06-14T13:22:56.080Z,24.12
2018-06-14T13:23:56.853Z,24.14
2018-06-14T13:24:57.651Z,24.16
2018-06-14T13:25:58.420Z,24.18
2018-06-14T13:26:59.192Z,24.19
2018-06-14T13:27:59.967Z,24.22
2018-06-14T13:29:00.740Z,24.24
2018-06-14T13:30:01.530Z,24.27
2018-06-14T13:31:02.305Z,24.29
2018-06-14T13:32:03.077Z,24.32
2018-06-14T13:33:03.851Z,24.34
2018-06-14T13:34:04.623Z,24.37
2018-06-14T13:35:05.417Z,24.39
2018-06-14T13:36:06.196Z,24.42
2018-06-14T13:37:06.967Z,24.46
2018-06-14T13:38:07.739Z,24.50
2018-06-14T13:39:08.514Z,24.54
2018-06-14T13:40:09.309Z,24.59
2018-06-14T13:41:10.080Z,24.63
2018-06-14T13:42:10.861Z,24.67
2018-06-14T13:43:11.637Z,24.71
2018-06-14T13:44:12.404Z,24.75
2018-06-14T13:45:13.200Z,24.78
2018-06-14T13:46:13.975Z,24.82
2018-06-14T13:47:14.751Z,24.86
2018-06-14T13:48:15.529Z,24.89
2018-06-14T13:49:16.352Z,24.92
2018-06-14T13:50:16.130Z,24.95
2018-06-14T13:51:17.863Z,24.98
2018-06-14T13:52:18.636Z,25.01
2018-06-14T13:53:19.406Z,25.04
2018-06-14T13:54:20.412Z,25.07
2018-06-14T13:55:20.219Z,25.09
2018-06-14T13:56:20.917Z,25.11
2018-06-14T13:57:21.695Z,25.12
2018-06-14T13:58:22.486Z,25.13
2018-06-14T13:59:24.255Z,25.14
2018-06-14T14:00:25.053Z,25.15
2018-06-14T14:01:25.906Z,25.16
2018-06-14T14:02:25.594Z,25.18
2018-06-14T14:03:27.407Z,25.19
2018-06-14T14:04:27.152Z,25.21
2018-06-14T14:05:28.948Z,25.22
2018-06-14T14:06:29.771Z,25.23
2018-06-14T14:07:29.492Z,25.25
2018-06-14T14:08:31.265Z,25.26
2018-06-14T14:09:32.040Z,25.27
2018-06-14T14:10:32.833Z,25.29
2018-06-14T14:11:33.605Z,25.30
2018-06-14T14:12:34.377Z,25.32
2018-06-14T14:13:35.147Z,25.32
2018-06-14T14:14:35.991Z,25.33
2018-06-14T14:15:35.717Z,25.34
2018-06-14T14:16:37.491Z,25.36
2018-06-14T14:17:38.260Z,25.38
2018-06-14T14:18:39.036Z,25.39
2018-06-14T14:19:39.806Z,25.40
2018-06-14T14:20:40.602Z,25.41
2018-06-14T14:21:41.374Z,25.43
2018-06-14T14:22:42.148Z,25.45
2018-06-14T14:23:42.920Z,25.46
2018-06-14T14:24:43.694Z,25.48
2018-06-14T14:25:44.489Z,25.50
2018-06-14T14:26:45.260Z,25.51
2018-06-14T14:27:46.039Z,25.52
2018-06-14T14:28:46.804Z,25.54
2018-06-14T14:29:47.577Z,25.55
2018-06-14T14:30:48.376Z,25.55
2018-06-14T14:31:49.147Z,25.56
2018-06-14T14:32:49.922Z,25.57
2018-06-14T14:33:50.700Z,25.58
2018-06-14T14:34:51.473Z,25.58
2018-06-14T14:35:52.270Z,25.59
2018-06-14T14:36:53.039Z,25.59
2018-06-14T14:37:53.811Z,25.60
2018-06-14T14:38:54.584Z,25.60
2018-06-14T14:39:55.353Z,25.59
2018-06-14T14:40:56.155Z,25.57
2018-06-14T14:41:56.924Z,25.57
2018-06-14T14:42:57.703Z,25.55
2018-06-14T14:43:58.470Z,25.53
2018-06-14T14:44:59.244Z,25.52
2018-06-14T14:46:00.040Z,25.52
2018-06-14T14:47:00.812Z,25.51
2018-06-14T14:48:01.588Z,25.50
2018-06-14T14:49:02.360Z,25.49
2018-06-14T14:50:03.131Z,25.49
2018-06-14T14:51:03.930Z,25.48
2018-06-14T14:52:04.702Z,25.48
2018-06-14T14:53:05.537Z,25.47
2018-06-14T14:54:05.245Z,25.46
2018-06-14T14:55:07.084Z,25.46
2018-06-14T14:56:06.825Z,25.45
2018-06-14T14:57:08.600Z,25.44
2018-06-14T14:58:09.373Z,25.43
2018-06-14T14:59:10.144Z,25.41
2018-06-14T15:00:10.919Z,25.39
2018-06-14T15:01:11.711Z,25.37
2018-06-14T15:02:12.494Z,25.36
2018-06-14T15:03:13.268Z,25.35
2018-06-14T15:04:14.043Z,25.33
2018-06-14T15:05:14.820Z,25.30
2018-06-14T15:06:15.997Z,25.28
2018-06-14T15:09:12.588Z,25.20
2018-06-14T15:10:13.365Z,25.16
2018-06-14T15:11:14.131Z,25.16
2018-06-14T15:12:14.926Z,25.16
2018-06-14T15:13:15.701Z,25.17
2018-06-14T15:14:16.513Z,25.20
2018-06-14T15:15:16.246Z,25.21
2018-06-14T15:16:18.017Z,25.22
2018-06-14T15:17:18.814Z,25.21
2018-06-14T15:18:19.587Z,25.20
2018-06-14T15:19:20.360Z,25.19
2018-06-14T15:20:21.133Z,25.17
2018-06-14T15:21:21.918Z,25.15
2018-06-14T15:22:21.698Z,25.14
2018-06-14T15:23:23.470Z,25.12
2018-06-14T15:24:24.239Z,25.10
2018-06-14T15:25:25.011Z,25.09
2018-06-14T15:26:24.786Z,25.06
2018-06-14T15:27:26.576Z,25.04
2018-06-14T15:28:27.374Z,25.01
2018-06-14T15:29:28.124Z,24.99
2018-06-14T15:30:28.898Z,24.97
2018-06-14T15:31:29.668Z,24.95
2018-06-14T15:32:30.465Z,24.92
2018-06-14T15:33:31.235Z,24.91
2018-06-14T15:34:32.009Z,24.89
2018-06-14T15:35:32.779Z,24.87
2018-06-14T15:36:33.552Z,24.84
2018-06-14T15:37:34.349Z,24.81
2018-06-14T15:38:35.119Z,24.80
2018-06-14T15:39:35.895Z,24.78
2018-06-14T15:40:36.671Z,24.76
2018-06-14T15:41:37.441Z,24.74
2018-06-14T15:42:38.246Z,24.73
2018-06-14T15:43:39.008Z,24.71
2018-06-14T15:44:39.785Z,24.70
2018-06-14T15:45:40.556Z,24.70
2018-06-14T15:46:41.329Z,24.70
2018-06-14T15:47:42.125Z,24.69
2018-06-14T15:48:42.896Z,24.68
2018-06-14T15:49:43.669Z,24.68
2018-06-14T15:50:44.441Z,24.68
2018-06-14T15:51:45.219Z,24.66
2018-06-14T15:52:46.017Z,24.65
2018-06-14T15:53:46.785Z,24.63
2018-06-14T15:54:47.559Z,24.61
2018-06-14T15:55:48.331Z,24.60
2018-06-14T15:56:49.105Z,24.58
2018-06-14T15:57:49.917Z,24.57
2018-06-14T15:58:50.696Z,24.55
2018-06-14T15:59:51.465Z,24.54
2018-06-14T16:00:52.256Z,24.53
2018-06-14T16:01:52.011Z,24.52
2018-06-14T16:02:53.809Z,24.52
2018-06-14T16:03:54.584Z,24.51
2018-06-14T16:04:55.362Z,24.50
2018-06-14T16:05:55.125Z,24.50
2018-06-14T16:06:56.898Z,24.50
2018-06-14T16:07:57.692Z,24.50
2018-06-14T16:08:58.465Z,24.49
2018-06-14T16:09:59.240Z,24.48
2018-06-14T16:11:00.016Z,24.48
2018-06-14T16:12:00.785Z,24.48
2018-06-14T16:13:01.584Z,24.48
2018-06-14T16:14:02.357Z,24.47
2018-06-14T16:15:03.131Z,24.47
2018-06-14T16:16:03.902Z,24.46
2018-06-14T16:17:04.676Z,24.45
2018-06-14T16:18:05.476Z,24.43
2018-06-14T16:19:06.252Z,24.42
2018-06-14T16:20:06.021Z,24.40
2018-06-14T16:21:07.812Z,24.38
2018-06-14T16:22:08.569Z,24.37
2018-06-14T16:23:09.358Z,24.36
2018-06-14T16:24:10.137Z,24.35
2018-06-14T16:25:10.905Z,24.35
2018-06-14T16:26:11.676Z,24.36
2018-06-14T16:27:12.450Z,24.35
2018-06-14T16:28:13.247Z,24.34
2018-06-14T16:29:14.019Z,24.33
2018-06-14T16:30:14.788Z,24.32
2018-06-14T16:31:15.565Z,24.31
2018-06-14T16:32:16.338Z,24.29
2018-06-14T16:33:17.143Z,24.27
2018-06-14T16:34:17.910Z,24.25
2018-06-14T16:35:18.682Z,24.22
2018-06-14T16:36:19.458Z,24.20
2018-06-14T16:37:20.305Z,24.17
2018-06-14T16:38:20.021Z,24.14
2018-06-14T16:39:21.796Z,24.11
2018-06-14T16:40:22.579Z,24.09
2018-06-14T16:41:22.343Z,24.06
2018-06-14T16:42:24.115Z,24.02
2018-06-14T16:43:24.915Z,24.00
2018-06-14T16:44:24.706Z,23.98
2018-06-14T16:45:26.462Z,23.96
2018-06-14T16:46:27.234Z,23.93
2018-06-14T16:47:28.006Z,23.90
2018-06-14T16:48:28.806Z,23.87
2018-06-14T16:49:29.582Z,23.84
2018-06-14T16:50:30.352Z,23.82
2018-06-14T16:51:31.123Z,23.79
2018-06-14T16:52:31.907Z,23.76
2018-06-14T16:53:31.691Z,23.74
2018-06-14T16:54:33.463Z,23.72
2018-06-14T16:55:34.239Z,23.70
2018-06-14T16:56:35.008Z,23.68
2018-06-14T16:57:35.783Z,23.65
2018-06-14T16:58:36.580Z,23.63
2018-06-14T16:59:37.352Z,23.60
2018-06-14T17:00:38.126Z,23.57
2018-06-14T17:01:38.896Z,23.54
2018-06-14T17:02:39.674Z,23.52
2018-06-14T17:03:40.472Z,23.49
2018-06-14T17:04:41.599Z,23.46
2018-06-14T17:05:41.784Z,23.44
2018-06-14T17:06:40.966Z,23.41
2018-06-14T17:08:49.331Z,23.00
2018-06-14T17:09:50.103Z,22.95
2018-06-14T17:10:50.874Z,22.95
2018-06-14T17:11:51.644Z,22.95
2018-06-14T17:12:52.416Z,22.94
2018-06-14T17:13:53.216Z,22.94
2018-06-14T17:14:53.984Z,22.95
2018-06-14T17:15:54.805Z,22.95
2018-06-14T17:16:54.529Z,22.95
2018-06-14T17:17:56.300Z,22.94
2018-06-14T17:18:57.097Z,22.93
2018-06-14T17:19:57.863Z,22.92
2018-06-14T17:20:58.643Z,22.92
2018-06-14T17:21:59.412Z,22.91
2018-06-14T17:23:00.183Z,22.90
2018-06-14T17:24:00.988Z,22.88
2018-06-14T17:25:01.754Z,22.87
2018-06-14T17:26:02.528Z,22.86
2018-06-14T17:27:03.295Z,22.86
2018-06-14T17:28:04.074Z,22.85
2018-06-14T17:29:04.869Z,22.83
2018-06-14T17:30:05.638Z,22.82
2018-06-14T17:31:06.406Z,22.81
2018-06-14T17:32:07.178Z,22.79
2018-06-14T17:33:07.951Z,22.76
2018-06-14T17:34:08.748Z,22.75
2018-06-14T17:35:09.521Z,22.73
2018-06-14T17:36:10.313Z,22.72
2018-06-14T17:37:11.063Z,22.70
2018-06-14T17:38:11.835Z,22.68
2018-06-14T17:39:12.630Z,22.67
2018-06-14T17:40:13.402Z,22.67
2018-06-14T17:41:14.344Z,22.65
2018-06-14T17:42:13.945Z,22.63
2018-06-14T17:43:15.775Z,22.61
2018-06-14T17:44:15.518Z,22.58
2018-06-14T17:45:17.285Z,22.55
2018-06-14T17:46:17.118Z,22.53
2018-06-14T17:47:17.836Z,22.51
2018-06-14T17:48:19.608Z,22.49
2018-06-14T17:49:20.403Z,22.46
2018-06-14T17:50:21.176Z,22.44
2018-06-14T17:51:21.954Z,22.40
2018-06-14T17:52:22.722Z,22.36
2018-06-14T17:53:23.537Z,22.31
2018-06-14T17:54:23.286Z,22.28
2018-06-14T17:55:25.060Z,22.25
2018-06-14T17:56:25.846Z,22.22
2018-06-14T17:57:26.604Z,22.18
2018-06-14T17:58:27.372Z,22.16
2018-06-14T17:59:28.171Z,22.12
2018-06-14T18:00:28.945Z,22.07
2018-06-14T18:01:29.723Z,22.03
2018-06-14T18:02:30.486Z,21.99
2018-06-14T18:03:31.263Z,21.95
2018-06-14T18:04:32.062Z,21.91
2018-06-14T18:05:32.830Z,21.87
2018-06-14T18:06:33.631Z,21.85
2018-06-14T18:07:35.080Z,21.84
2018-06-14T18:08:34.149Z,21.83
2018-06-14T18:09:35.944Z,21.82
2018-06-14T18:10:36.713Z,21.82
2018-06-14T18:11:37.484Z,21.80
2018-06-14T18:12:38.256Z,21.80
2018-06-14T18:13:39.029Z,21.77
2018-06-14T18:14:39.823Z,21.76
2018-06-14T18:15:40.594Z,21.76
2018-06-14T18:16:41.372Z,21.74
2018-06-14T18:17:42.146Z,21.71
2018-06-14T18:18:42.921Z,21.68
2018-06-14T18:19:43.709Z,21.66
2018-06-14T18:20:44.481Z,21.64
2018-06-14T18:21:48.104Z,21.60
2018-06-14T18:22:47.830Z,21.56
2018-06-14T18:23:46.604Z,21.52
2018-06-14T18:24:47.398Z,21.48
2018-06-14T18:25:48.170Z,21.45
2018-06-14T18:26:48.942Z,21.41
2018-06-14T18:27:49.714Z,21.35
2018-06-14T18:28:50.494Z,21.31
2018-06-14T18:29:51.339Z,21.28
2018-06-14T18:30:51.055Z,21.25
2018-06-14T18:31:52.825Z,21.24
2018-06-14T18:32:53.669Z,21.22
2018-06-14T18:33:53.369Z,21.22
2018-06-14T18:34:55.165Z,21.22
2018-06-14T18:35:55.936Z,21.22
2018-06-14T18:36:56.711Z,21.22
2018-06-14T18:37:57.495Z,21.22
2018-06-14T18:38:58.252Z,21.22
2018-06-14T18:39:59.046Z,21.22
2018-06-14T18:40:59.817Z,21.20
2018-06-14T18:42:00.589Z,21.17
2018-06-14T18:43:01.362Z,21.13
2018-06-14T18:44:02.132Z,21.06
2018-06-14T18:45:02.929Z,20.99
2018-06-14T18:46:03.698Z,20.92
2018-06-14T18:47:04.472Z,20.85
2018-06-14T18:48:05.246Z,20.78
2018-06-14T18:49:06.023Z,20.70
2018-06-14T18:50:06.815Z,20.64
2018-06-14T18:51:07.586Z,20.58
2018-06-14T18:52:08.359Z,20.53
2018-06-14T18:53:09.132Z,20.49
2018-06-14T18:54:09.901Z,20.45
2018-06-14T18:55:10.700Z,20.42
2018-06-14T18:56:11.470Z,20.38
2018-06-14T18:57:12.244Z,20.35
2018-06-14T18:58:13.024Z,20.34
2018-06-14T18:59:13.795Z,20.32
2018-06-14T19:00:14.594Z,20.31
2018-06-14T19:01:15.392Z,20.29
2018-06-14T19:02:16.137Z,20.26
2018-06-14T19:03:16.912Z,20.22
2018-06-14T19:04:18.039Z,20.19
2018-06-14T19:05:18.247Z,20.16
2018-06-14T19:06:17.422Z,20.12
2018-06-14T19:07:27.586Z,19.07
2018-06-14T19:08:28.357Z,19.03
2018-06-14T19:09:29.126Z,19.03
2018-06-14T19:10:29.920Z,19.02
2018-06-14T19:11:30.691Z,19.03
2018-06-14T19:12:31.461Z,19.04
2018-06-14T19:13:32.233Z,19.05
2018-06-14T19:14:33.003Z,19.07
2018-06-14T19:15:33.808Z,19.09
2018-06-14T19:16:34.572Z,19.09
2018-06-14T19:17:35.411Z,19.09
2018-06-14T19:18:35.113Z,19.09
2018-06-14T19:19:36.885Z,19.09
2018-06-14T19:20:37.683Z,19.08
2018-06-14T19:21:38.455Z,19.06
2018-06-14T19:22:39.251Z,19.04
2018-06-14T19:23:39.002Z,19.04
2018-06-14T19:24:40.770Z,19.05
2018-06-14T19:25:41.560Z,19.07
2018-06-14T19:26:42.334Z,19.07
2018-06-14T19:27:43.101Z,19.08
2018-06-14T19:28:43.873Z,19.10
2018-06-14T19:29:44.645Z,19.11
2018-06-14T19:30:45.438Z,19.10
2018-06-14T19:31:46.211Z,19.10
2018-06-14T19:32:46.982Z,19.10
2018-06-14T19:33:47.753Z,19.10
2018-06-14T19:34:48.527Z,19.09
2018-06-14T19:35:49.328Z,19.09
2018-06-14T19:36:50.095Z,19.09
2018-06-14T19:37:50.870Z,19.08
2018-06-14T19:38:51.637Z,19.07
2018-06-14T19:39:52.406Z,19.07
2018-06-14T19:40:53.201Z,19.08
2018-06-14T19:41:53.972Z,19.09
2018-06-14T19:42:54.746Z,19.09
2018-06-14T19:43:55.524Z,19.10
2018-06-14T19:44:56.287Z,19.11
2018-06-14T19:45:57.083Z,19.13
2018-06-14T19:46:57.850Z,19.15
2018-06-14T19:47:58.664Z,19.16
2018-06-14T19:48:58.394Z,19.17
2018-06-14T19:50:00.164Z,19.16
2018-06-14T19:51:00.963Z,19.15
2018-06-14T19:52:01.746Z,19.12
2018-06-14T19:53:02.516Z,19.08
2018-06-14T19:54:03.288Z,19.04
2018-06-14T19:55:04.061Z,19.02
2018-06-14T19:56:04.855Z,19.00
2018-06-14T19:57:05.623Z,19.00
2018-06-14T19:58:06.396Z,18.99
2018-06-14T19:59:07.165Z,18.98
2018-06-14T20:00:07.949Z,18.97
2018-06-14T20:01:08.744Z,18.96
2018-06-14T20:02:08.508Z,18.94
2018-06-14T20:03:10.278Z,18.92
2018-06-14T20:04:11.046Z,18.89
2018-06-14T20:05:11.818Z,18.87
2018-06-14T20:06:12.614Z,18.85
2018-06-14T20:07:13.383Z,18.84
2018-06-14T20:08:14.157Z,18.83
2018-06-14T20:09:14.940Z,18.83
2018-06-14T20:10:15.708Z,18.83
2018-06-14T20:11:16.503Z,18.80
2018-06-14T20:12:17.275Z,18.78
2018-06-14T20:13:18.046Z,18.77
2018-06-14T20:14:18.851Z,18.76
2018-06-14T20:15:19.591Z,18.79
2018-06-14T20:16:20.386Z,18.86
2018-06-14T20:17:21.160Z,18.94
2018-06-14T20:18:21.930Z,19.03
2018-06-14T20:19:22.703Z,19.14
2018-06-14T20:20:23.473Z,19.24
2018-06-14T20:21:24.273Z,19.35
2018-06-14T20:22:25.049Z,19.46
2018-06-14T20:23:25.819Z,19.57
2018-06-14T20:24:26.594Z,19.68
2018-06-14T20:25:27.367Z,19.78
2018-06-14T20:26:28.159Z,19.88
2018-06-14T20:27:28.933Z,19.98
2018-06-14T20:28:29.703Z,20.07
2018-06-14T20:29:30.474Z,20.15
2018-06-14T20:30:31.252Z,20.24
2018-06-14T20:31:32.043Z,20.32
2018-06-14T20:32:32.817Z,20.40
2018-06-14T20:33:33.590Z,20.47
2018-06-14T20:34:34.362Z,20.54
2018-06-14T20:35:35.136Z,20.61
2018-06-14T20:36:35.928Z,20.67
2018-06-14T20:37:36.699Z,20.73
2018-06-14T20:38:37.473Z,20.79
2018-06-14T20:39:38.247Z,20.84
2018-06-14T20:40:39.018Z,20.89
2018-06-14T20:41:39.825Z,20.94
2018-06-14T20:42:40.596Z,20.99
2018-06-14T20:43:41.404Z,21.04
2018-06-14T20:44:42.139Z,21.08
2018-06-14T20:45:42.912Z,21.13
2018-06-14T20:46:43.710Z,21.17
2018-06-14T20:47:44.485Z,21.21
2018-06-14T20:48:45.296Z,21.24
2018-06-14T20:49:45.037Z,21.28
2018-06-14T20:50:46.803Z,21.32
2018-06-14T20:51:47.665Z,21.35
2018-06-14T20:52:47.374Z,21.38
2018-06-14T20:53:49.141Z,21.41
2018-06-14T20:54:49.915Z,21.45
2018-06-14T20:55:50.687Z,21.48
2018-06-14T20:56:51.484Z,21.51
2018-06-14T20:57:52.256Z,21.54
2018-06-14T20:58:53.027Z,21.56
2018-06-14T20:59:54.158Z,21.59
2018-06-14T21:03:04.502Z,22.07
2018-06-14T21:04:05.271Z,22.04
2018-06-14T21:05:06.111Z,22.04
2018-06-14T21:06:05.811Z,22.04
2018-06-14T21:07:07.607Z,22.04
2018-06-14T21:08:08.378Z,22.04
2018-06-14T21:09:09.150Z,22.05
2018-06-14T21:10:09.921Z,22.05
2018-06-14T21:11:10.695Z,22.05
2018-06-14T21:12:11.486Z,22.06
2018-06-14T21:13:12.256Z,22.06
2018-06-14T21:14:13.030Z,22.07
2018-06-14T21:15:13.804Z,22.07
2018-06-14T21:16:14.573Z,22.08
2018-06-14T21:17:15.368Z,22.09
2018-06-14T21:18:16.140Z,22.09
2018-06-14T21:19:16.910Z,22.10
2018-06-14T21:20:17.682Z,22.11
2018-06-14T21:21:18.454Z,22.11
2018-06-14T21:22:19.253Z,22.12
2018-06-14T21:23:20.022Z,22.13
2018-06-14T21:24:20.793Z,22.14
2018-06-14T21:25:21.568Z,22.14
2018-06-14T21:26:22.340Z,22.15
2018-06-14T21:27:23.135Z,22.15
2018-06-14T21:28:23.906Z,22.16
2018-06-14T21:29:24.677Z,22.17
2018-06-14T21:30:25.449Z,22.18
2018-06-14T21:31:26.225Z,22.19
2018-06-14T21:32:27.024Z,22.20
